Time;durP1;ratioP1;P1;durP2;ratioP2;P2;SDS_P1;SDS_P2;PMS_P1;PMS_P2;Temp;Humidity;BMP_temperature;BMP_pressure;BME280_temperature;BME280_humidity;BME280_pressure;Samples;Min_cycle;Max_cycle;Signal;HPM_P1;HPM_P2
2023/11/14 00:02:04;;;;;;;0.68;0.40;;;21.20;56.20;;;;;;5017528;28;20033;-66
2023/11/14 00:04:29;;;;;;;1.48;0.60;;;21.20;56.20;;;;;;5019854;28;20033;-66
2023/11/14 00:06:55;;;;;;;0.47;0.40;;;21.20;56.20;;;;;;5019220;28;20066;-66
2023/11/14 00:09:21;;;;;;;0.50;0.40;;;21.20;56.20;;;;;;5016218;28;20041;-66
2023/11/14 00:11:46;;;;;;;0.73;0.50;;;21.20;56.20;;;;;;5017560;28;20025;-66
2023/11/14 00:14:12;;;;;;;0.40;0.40;;;21.20;56.20;;;;;;5017936;28;20516;-66
2023/11/14 00:16:37;;;;;;;0.35;0.35;;;21.20;56.20;;;;;;5017795;28;20022;-66
2023/11/14 00:19:03;;;;;;;0.88;0.50;;;21.20;56.30;;;;;;5019740;28;20347;-65
2023/11/14 00:21:29;;;;;;;1.08;0.52;;;21.20;56.30;;;;;;5023156;28;20127;-66
2023/11/14 00:23:55;;;;;;;1.33;0.47;;;21.20;56.30;;;;;;5017671;28;20060;-67
2023/11/14 00:26:20;;;;;;;1.00;0.47;;;21.20;56.30;;;;;;5023163;28;20026;-67
2023/11/14 00:28:46;;;;;;;0.77;0.50;;;21.20;56.30;;;;;;5021041;28;20047;-67
2023/11/14 00:31:12;;;;;;;0.43;0.40;;;21.20;56.30;;;;;;5023390;28;20444;-67
2023/11/14 00:33:37;;;;;;;0.73;0.50;;;21.20;56.30;;;;;;5023180;28;20444;-66
2023/11/14 00:36:03;;;;;;;0.68;0.40;;;21.20;56.30;;;;;;5020574;28;20494;-66
2023/11/14 00:38:29;;;;;;;0.60;0.50;;;21.20;56.40;;;;;;5019115;28;20053;-66
2023/11/14 00:40:55;;;;;;;0.43;0.40;;;21.20;56.30;;;;;;5019818;28;20053;-67
2023/11/14 00:43:21;;;;;;;0.70;0.50;;;21.20;56.30;;;;;;5020405;28;20037;-67
2023/11/14 00:45:46;;;;;;;0.77;0.40;;;21.20;56.30;;;;;;5022381;28;20033;-67
2023/11/14 00:48:12;;;;;;;1.10;0.52;;;21.20;56.30;;;;;;5024483;28;20385;-66
2023/11/14 00:50:38;;;;;;;0.60;0.45;;;21.10;56.30;;;;;;5019741;28;20034;-65
2023/11/14 00:53:03;;;;;;;0.32;0.32;;;21.20;56.40;;;;;;5019911;28;20120;-66
2023/11/14 00:55:29;;;;;;;0.55;0.40;;;21.10;56.30;;;;;;5020808;28;20037;-66
2023/11/14 00:57:54;;;;;;;0.50;0.43;;;21.10;56.30;;;;;;5037455;28;20128;-66
2023/11/14 01:00:21;;;;;;;0.50;0.40;;;21.10;56.30;;;;;;5018723;28;20025;-65
2023/11/14 01:02:46;;;;;;;0.47;0.40;;;21.10;56.30;;;;;;5022474;28;20079;-66
2023/11/14 01:05:12;;;;;;;0.55;0.40;;;21.10;56.30;;;;;;5021222;28;20393;-67
2023/11/14 01:07:37;;;;;;;0.47;0.40;;;21.10;56.30;;;;;;5020026;28;20105;-65
2023/11/14 01:10:04;;;;;;;1.13;0.60;;;21.10;56.30;;;;;;5019093;28;20044;-66
2023/11/14 01:12:31;;;;;;;0.50;0.40;;;21.10;56.30;;;;;;5022481;28;20030;-66
2023/11/14 01:14:57;;;;;;;0.30;0.30;;;21.10;56.30;;;;;;5036564;28;20026;-66
2023/11/14 01:17:23;;;;;;;0.73;0.50;;;21.10;56.30;;;;;;5023244;28;20041;-66
2023/11/14 01:19:49;;;;;;;0.60;0.30;;;21.10;56.30;;;;;;5020833;28;20043;-66
2023/11/14 01:22:15;;;;;;;0.63;0.50;;;21.10;56.30;;;;;;5020947;28;20104;-65
2023/11/14 01:24:41;;;;;;;0.40;0.40;;;21.10;56.30;;;;;;5020579;28;20438;-66
2023/11/14 01:27:07;;;;;;;0.50;0.50;;;21.10;56.30;;;;;;5019685;28;20030;-66
2023/11/14 01:29:32;;;;;;;0.55;0.50;;;21.10;56.40;;;;;;5021578;28;20103;-66
2023/11/14 01:31:58;;;;;;;0.35;0.30;;;21.10;56.30;;;;;;5021035;28;20043;-67
2023/11/14 01:34:25;;;;;;;1.08;0.47;;;21.10;56.40;;;;;;5022164;28;20045;-67
2023/11/14 01:36:55;;;;;;;0.47;0.47;;;21.10;56.30;;;;;;5020700;28;20022;-67
2023/11/14 01:39:21;;;;;;;0.30;0.30;;;21.10;56.40;;;;;;5021561;28;20105;-67
2023/11/14 01:41:47;;;;;;;0.47;0.40;;;21.00;56.30;;;;;;5019820;28;20521;-67
2023/11/14 01:44:13;;;;;;;0.70;0.50;;;21.10;56.40;;;;;;5022579;28;20044;-67
2023/11/14 01:46:39;;;;;;;0.60;0.38;;;21.00;56.40;;;;;;5023345;28;20029;-67
2023/11/14 01:49:05;;;;;;;0.30;0.30;;;21.10;56.40;;;;;;5022447;28;20021;-66
2023/11/14 01:51:36;;;;;;;0.63;0.40;;;21.10;56.40;;;;;;5020410;28;20102;-67
2023/11/14 01:54:03;;;;;;;0.63;0.45;;;21.10;56.40;;;;;;5017820;28;20057;-66
2023/11/14 01:56:29;;;;;;;0.40;0.40;;;21.00;56.30;;;;;;5017363;28;20014;-67
2023/11/14 01:58:55;;;;;;;0.85;0.40;;;21.10;56.40;;;;;;5022814;28;20359;-66
2023/11/14 02:01:22;;;;;;;0.40;0.40;;;21.00;56.40;;;;;;5020387;28;20359;-66
2023/11/14 02:03:48;;;;;;;0.55;0.40;;;21.00;56.40;;;;;;5019738;28;20087;-66
2023/11/14 02:06:14;;;;;;;0.43;0.30;;;21.00;56.40;;;;;;5034597;28;20393;-66
2023/11/14 02:08:40;;;;;;;0.60;0.40;;;21.00;56.40;;;;;;5021660;28;20030;-66
2023/11/14 02:11:06;;;;;;;0.45;0.40;;;21.00;56.40;;;;;;5015780;28;20498;-66
2023/11/14 02:13:33;;;;;;;0.55;0.55;;;21.00;56.40;;;;;;5021362;28;20029;-66
2023/11/14 02:15:59;;;;;;;0.50;0.47;;;21.00;56.40;;;;;;5019279;28;20025;-66
2023/11/14 02:18:25;;;;;;;0.47;0.47;;;21.00;56.40;;;;;;5020600;28;20022;-65
2023/11/14 02:20:51;;;;;;;0.70;0.50;;;21.00;56.40;;;;;;5019285;28;20354;-66
2023/11/14 02:23:18;;;;;;;0.40;0.40;;;21.00;56.40;;;;;;5019256;28;20963;-66
2023/11/14 02:25:44;;;;;;;0.88;0.40;;;21.00;56.40;;;;;;5018182;28;20038;-66
2023/11/14 02:28:10;;;;;;;1.00;0.60;;;21.00;56.40;;;;;;5020922;28;20030;-65
2023/11/14 02:30:38;;;;;;;0.40;0.40;;;21.00;57.00;;;;;;5019303;28;20034;-66
2023/11/14 02:33:07;;;;;;;0.45;0.45;;;21.00;56.50;;;;;;5021449;28;20041;-66
2023/11/14 02:35:33;;;;;;;0.40;0.40;;;21.00;56.50;;;;;;5019015;28;20459;-66
2023/11/14 02:37:58;;;;;;;0.68;0.32;;;21.00;56.50;;;;;;5019017;28;20116;-66
2023/11/14 02:40:24;;;;;;;0.50;0.38;;;21.00;56.50;;;;;;5017733;28;20025;-66
2023/11/14 02:42:51;;;;;;;0.50;0.40;;;20.90;56.40;;;;;;5018547;28;20025;-66
2023/11/14 02:45:16;;;;;;;0.77;0.40;;;21.00;56.50;;;;;;5021781;28;20048;-66
2023/11/14 02:47:42;;;;;;;0.60;0.43;;;21.00;56.50;;;;;;5020422;28;20030;-66
2023/11/14 02:50:51;;;;;;;0.20;0.20;;;21.00;56.50;;;;;;5019721;28;20143;-67
2023/11/14 02:53:19;;;;;;;0.30;0.30;;;21.00;56.50;;;;;;4973434;28;20065;-67
2023/11/14 02:55:48;;;;;;;1.45;0.63;;;20.90;56.40;;;;;;5018313;28;20041;-65
2023/11/14 02:58:14;;;;;;;0.43;0.32;;;20.90;56.50;;;;;;5018868;28;20042;-65
2023/11/14 03:00:45;;;;;;;0.82;0.70;;;20.90;56.40;;;;;;5033473;28;20035;-65
2023/11/14 03:03:12;;;;;;;0.75;0.40;;;20.90;56.40;;;;;;5018875;28;20480;-65
2023/11/14 03:05:38;;;;;;;1.30;0.60;;;20.90;56.50;;;;;;5020303;28;20026;-66
2023/11/14 03:08:04;;;;;;;0.38;0.38;;;20.90;56.40;;;;;;5019570;28;20036;-67
2023/11/14 03:10:32;;;;;;;0.55;0.40;;;20.90;56.50;;;;;;5017685;28;20412;-66
2023/11/14 03:12:59;;;;;;;0.98;0.77;;;20.90;56.50;;;;;;5019363;28;20021;-66
2023/11/14 03:15:26;;;;;;;0.90;0.47;;;20.90;56.50;;;;;;5019522;28;20049;-66
2023/11/14 03:17:55;;;;;;;0.55;0.47;;;20.90;56.50;;;;;;5019394;28;20101;-66
2023/11/14 03:20:22;;;;;;;1.00;0.50;;;20.90;56.50;;;;;;5017923;28;20030;-66
2023/11/14 03:22:47;;;;;;;0.47;0.40;;;20.90;56.50;;;;;;5017521;28;20073;-65
2023/11/14 03:25:13;;;;;;;0.30;0.30;;;20.90;56.50;;;;;;5015491;28;20989;-66
2023/11/14 03:27:39;;;;;;;1.15;0.70;;;20.90;56.50;;;;;;5019025;28;20041;-66
2023/11/14 03:30:07;;;;;;;0.50;0.50;;;20.90;56.50;;;;;;5018426;28;20350;-65
2023/11/14 03:32:33;;;;;;;0.40;0.40;;;20.90;56.50;;;;;;5017723;28;20057;-65
2023/11/14 03:34:58;;;;;;;0.80;0.45;;;20.90;56.50;;;;;;5019467;28;20504;-66
2023/11/14 03:37:24;;;;;;;0.70;0.40;;;20.90;56.50;;;;;;5020084;28;20033;-66
2023/11/14 03:39:50;;;;;;;0.63;0.40;;;20.90;56.50;;;;;;5019934;28;20065;-66
2023/11/14 03:42:15;;;;;;;0.75;0.40;;;20.90;56.50;;;;;;5017598;28;20018;-66
2023/11/14 03:44:41;;;;;;;0.47;0.45;;;20.80;56.50;;;;;;5018363;28;20037;-66
2023/11/14 03:47:07;;;;;;;0.75;0.50;;;20.80;56.50;;;;;;5018967;28;20030;-66
2023/11/14 03:49:32;;;;;;;0.57;0.40;;;20.90;56.60;;;;;;5001005;28;20040;-66
2023/11/14 03:51:58;;;;;;;0.40;0.35;;;20.90;56.60;;;;;;5017280;28;20040;-66
2023/11/14 03:54:24;;;;;;;0.50;0.40;;;20.80;56.50;;;;;;5033282;28;20034;-65
2023/11/14 03:56:50;;;;;;;0.40;0.38;;;20.80;56.50;;;;;;5016648;28;20401;-66
2023/11/14 03:59:16;;;;;;;0.52;0.50;;;20.80;56.60;;;;;;5018692;28;20091;-66
2023/11/14 04:01:41;;;;;;;0.43;0.40;;;20.80;56.50;;;;;;5018896;28;20029;-65
2023/11/14 04:04:07;;;;;;;0.57;0.35;;;20.80;56.50;;;;;;5017393;28;20030;-66
2023/11/14 04:06:32;;;;;;;0.60;0.50;;;20.80;56.60;;;;;;5018949;28;20021;-66
2023/11/14 04:08:58;;;;;;;0.40;0.40;;;20.80;56.60;;;;;;5020263;28;20057;-66
2023/11/14 04:11:24;;;;;;;0.90;0.60;;;20.80;56.60;;;;;;5015932;28;20446;-66
2023/11/14 04:13:50;;;;;;;0.70;0.40;;;20.80;56.60;;;;;;5018879;28;20473;-65
2023/11/14 04:16:15;;;;;;;0.80;0.50;;;20.80;56.60;;;;;;5017372;28;20022;-65
2023/11/14 04:18:42;;;;;;;0.40;0.40;;;20.80;56.60;;;;;;5015723;28;20028;-66
2023/11/14 04:21:09;;;;;;;0.63;0.60;;;20.80;56.60;;;;;;5018937;28;20076;-65
2023/11/14 04:23:35;;;;;;;0.52;0.52;;;20.80;56.60;;;;;;5019336;28;20390;-68
2023/11/14 04:26:02;;;;;;;1.10;0.52;;;20.80;56.60;;;;;;5017028;28;20032;-70
2023/11/14 04:28:27;;;;;;;0.60;0.43;;;20.80;56.60;;;;;;5018868;28;20116;-70
2023/11/14 04:30:54;;;;;;;0.55;0.40;;;20.80;56.60;;;;;;5033817;28;20112;-69
2023/11/14 04:33:19;;;;;;;0.70;0.50;;;20.80;56.60;;;;;;5015944;28;20026;-66
2023/11/14 04:35:45;;;;;;;0.40;0.40;;;20.80;56.60;;;;;;5019051;28;20507;-66
2023/11/14 04:38:11;;;;;;;0.55;0.45;;;20.70;56.50;;;;;;5018057;28;20033;-66
2023/11/14 04:40:36;;;;;;;0.75;0.50;;;20.80;56.60;;;;;;5015974;28;20025;-66
2023/11/14 04:43:02;;;;;;;0.65;0.50;;;20.80;56.60;;;;;;5031835;28;20040;-65
2023/11/14 04:45:27;;;;;;;0.30;0.30;;;20.80;56.60;;;;;;5018989;28;20057;-65
2023/11/14 04:47:53;;;;;;;0.40;0.35;;;20.80;56.60;;;;;;5018061;28;20073;-66
2023/11/14 04:50:23;;;;;;;0.57;0.40;;;20.70;56.50;;;;;;5019338;28;21074;-66
2023/11/14 04:52:48;;;;;;;0.43;0.40;;;20.70;57.10;;;;;;5032558;28;20034;-66
2023/11/14 04:55:14;;;;;;;0.30;0.30;;;20.70;56.60;;;;;;5019909;28;20108;-65
2023/11/14 04:57:40;;;;;;;0.73;0.50;;;20.70;56.60;;;;;;5011858;28;20038;-66
2023/11/14 05:00:08;;;;;;;1.08;0.45;;;20.70;56.60;;;;;;5017584;28;20398;-66
2023/11/14 05:02:34;;;;;;;0.40;0.40;;;20.80;56.60;;;;;;5017416;28;20104;-66
2023/11/14 05:05:00;;;;;;;0.43;0.32;;;20.70;56.60;;;;;;5017299;28;20120;-66
2023/11/14 05:07:25;;;;;;;0.70;0.50;;;20.70;56.60;;;;;;5020318;28;20074;-66
2023/11/14 05:09:52;;;;;;;0.57;0.50;;;20.70;56.60;;;;;;5021693;28;20407;-66
2023/11/14 05:12:18;;;;;;;0.68;0.43;;;20.70;56.60;;;;;;5018652;28;20029;-66
2023/11/14 05:14:45;;;;;;;0.63;0.50;;;20.70;56.60;;;;;;5022091;28;20095;-67
2023/11/14 05:17:11;;;;;;;0.82;0.50;;;20.70;56.60;;;;;;5019574;28;20022;-66
2023/11/14 05:19:37;;;;;;;0.65;0.40;;;20.70;56.60;;;;;;5018009;28;20103;-66
2023/11/14 05:22:02;;;;;;;0.40;0.40;;;20.70;56.60;;;;;;5020870;28;20026;-66
2023/11/14 05:24:28;;;;;;;0.40;0.40;;;20.70;56.60;;;;;;5021645;28;20501;-66
2023/11/14 05:26:53;;;;;;;0.63;0.50;;;20.70;56.60;;;;;;5003693;28;20084;-66
2023/11/14 05:29:19;;;;;;;0.50;0.50;;;20.70;56.60;;;;;;5025276;28;20112;-66
2023/11/14 05:31:45;;;;;;;0.35;0.30;;;20.70;56.60;;;;;;5021804;28;20033;-67
2023/11/14 05:34:11;;;;;;;0.57;0.40;;;20.70;56.60;;;;;;5020924;28;20026;-66
2023/11/14 05:36:37;;;;;;;0.70;0.38;;;20.70;56.60;;;;;;5021828;28;20030;-66
2023/11/14 05:39:04;;;;;;;0.65;0.60;;;20.70;56.60;;;;;;5020855;28;20381;-65
2023/11/14 05:41:30;;;;;;;0.50;0.50;;;20.70;56.60;;;;;;5018021;28;20023;-66
2023/11/14 05:43:57;;;;;;;0.68;0.50;;;20.70;56.60;;;;;;5020587;28;20088;-67
2023/11/14 05:46:22;;;;;;;1.15;0.60;;;20.70;56.60;;;;;;5020693;28;20516;-66
2023/11/14 05:48:48;;;;;;;0.50;0.50;;;20.70;56.60;;;;;;5020854;28;20121;-66
2023/11/14 05:51:14;;;;;;;1.10;0.57;;;20.70;56.60;;;;;;5016674;28;20484;-66
2023/11/14 05:53:40;;;;;;;0.80;0.50;;;20.70;56.70;;;;;;5021487;28;20064;-67
2023/11/14 05:56:06;;;;;;;0.45;0.40;;;20.70;56.70;;;;;;5023166;28;20025;-66
2023/11/14 05:58:31;;;;;;;1.00;0.60;;;20.70;56.70;;;;;;5035870;28;20088;-66
2023/11/14 06:00:57;;;;;;;0.73;0.40;;;20.70;56.70;;;;;;5020945;28;20478;-66
2023/11/14 06:03:24;;;;;;;1.13;0.45;;;20.60;56.60;;;;;;5021777;28;20029;-67
2023/11/14 06:05:49;;;;;;;0.95;0.55;;;20.70;56.70;;;;;;5019604;28;20021;-67
2023/11/14 06:08:15;;;;;;;0.98;0.45;;;20.70;56.70;;;;;;5021956;28;20386;-70
2023/11/14 06:10:41;;;;;;;0.50;0.50;;;20.70;56.70;;;;;;5024315;28;20021;-72
2023/11/14 06:13:06;;;;;;;0.45;0.40;;;20.70;57.40;;;;;;5034715;28;20096;-74
2023/11/14 06:15:32;;;;;;;0.60;0.50;;;20.70;57.50;;;;;;5021089;28;20034;-72
2023/11/14 06:17:57;;;;;;;0.85;0.52;;;20.80;58.40;;;;;;5017426;28;20382;-74
2023/11/14 06:20:23;;;;;;;1.00;0.60;;;21.00;58.40;;;;;;5018823;28;20033;-73
2023/11/14 06:22:52;;;;;;;0.60;0.57;;;21.10;57.80;;;;;;5020496;28;20025;-72
2023/11/14 06:25:18;;;;;;;0.60;0.45;;;21.20;58.10;;;;;;5019999;28;20560;-72
2023/11/14 06:27:44;;;;;;;0.70;0.47;;;21.30;57.50;;;;;;5014031;28;20041;-72
2023/11/14 06:30:11;;;;;;;1.38;0.60;;;21.40;57.20;;;;;;5020383;28;20095;-74
2023/11/14 06:32:37;;;;;;;0.82;0.50;;;21.50;57.10;;;;;;5018096;28;20108;-73
2023/11/14 06:35:03;;;;;;;0.45;0.40;;;21.60;57.10;;;;;;5019323;28;20501;-73
2023/11/14 06:37:28;;;;;;;1.10;0.50;;;21.70;56.50;;;;;;5020117;28;20466;-73
2023/11/14 06:39:57;;;;;;;0.55;0.40;;;21.80;56.20;;;;;;5019766;28;20030;-73
2023/11/14 06:42:23;;;;;;;0.50;0.40;;;21.90;56.30;;;;;;5017793;28;20426;-68
2023/11/14 06:44:49;;;;;;;0.30;0.30;;;21.90;56.00;;;;;;5018168;28;20033;-70
2023/11/14 06:47:15;;;;;;;0.68;0.50;;;22.10;55.80;;;;;;5018288;28;20029;-67
2023/11/14 06:49:42;;;;;;;1.00;0.52;;;22.10;55.60;;;;;;5018695;28;20159;-66
2023/11/14 06:52:08;;;;;;;1.20;0.60;;;22.20;55.30;;;;;;5019463;28;20030;-66
2023/11/14 06:54:33;;;;;;;0.98;0.50;;;22.10;55.20;;;;;;5020005;28;20040;-69
2023/11/14 06:56:59;;;;;;;1.10;0.50;;;22.10;55.20;;;;;;5016344;28;20022;-69
2023/11/14 06:59:25;;;;;;;1.13;0.52;;;22.10;55.20;;;;;;5020339;28;20025;-69
2023/11/14 07:01:52;;;;;;;0.88;0.50;;;22.10;55.30;;;;;;5019768;28;20021;-70
2023/11/14 07:04:18;;;;;;;0.65;0.50;;;22.10;55.30;;;;;;5017651;28;20474;-69
2023/11/14 07:06:44;;;;;;;0.47;0.45;;;22.10;55.30;;;;;;5020585;28;20069;-70
2023/11/14 07:09:10;;;;;;;0.95;0.60;;;22.00;55.30;;;;;;5036508;28;20912;-70
2023/11/14 07:11:37;;;;;;;1.20;0.60;;;22.10;55.30;;;;;;5018301;28;20037;-67
2023/11/14 07:14:02;;;;;;;0.63;0.50;;;22.10;55.30;;;;;;5017730;28;20079;-73
2023/11/14 07:16:28;;;;;;;1.08;0.60;;;22.00;55.20;;;;;;5018838;28;20050;-74
2023/11/14 07:18:54;;;;;;;0.88;0.47;;;22.00;55.40;;;;;;5018096;28;20110;-73
2023/11/14 07:21:19;;;;;;;1.52;0.63;;;22.00;55.30;;;;;;5019738;28;20100;-72
2023/11/14 07:23:45;;;;;;;1.27;0.60;;;22.00;55.20;;;;;;5019103;28;20041;-69
2023/11/14 07:26:11;;;;;;;1.30;0.70;;;22.00;55.30;;;;;;5020761;28;20041;-68
2023/11/14 07:28:37;;;;;;;1.20;0.52;;;22.00;55.20;;;;;;5016602;28;20116;-69
2023/11/14 07:31:03;;;;;;;1.88;0.60;;;22.00;55.20;;;;;;5019201;28;20105;-69
2023/11/14 07:33:30;;;;;;;1.75;0.73;;;22.00;55.20;;;;;;5019075;28;20027;-66
2023/11/14 07:35:56;;;;;;;1.50;0.60;;;22.00;55.20;;;;;;5019439;28;20026;-66
2023/11/14 07:38:21;;;;;;;1.27;0.63;;;22.00;55.20;;;;;;5018966;28;20435;-66
2023/11/14 07:40:47;;;;;;;0.80;0.60;;;22.00;55.20;;;;;;5019448;28;20030;-66
2023/11/14 07:43:14;;;;;;;1.42;0.70;;;22.00;55.20;;;;;;5014858;28;20474;-66
2023/11/14 07:45:40;;;;;;;0.70;0.50;;;22.00;55.20;;;;;;5017460;28;20018;-66
2023/11/14 07:48:07;;;;;;;0.98;0.60;;;22.00;55.10;;;;;;5018991;28;20026;-66
2023/11/14 07:50:33;;;;;;;0.85;0.60;;;22.00;55.10;;;;;;5018826;28;20505;-66
2023/11/14 07:52:59;;;;;;;1.20;0.60;;;22.00;55.10;;;;;;5016983;28;20022;-69
2023/11/14 07:55:24;;;;;;;1.38;0.60;;;22.00;55.10;;;;;;5018440;28;20090;-69
2023/11/14 07:57:50;;;;;;;2.03;0.65;;;22.00;55.10;;;;;;5016302;28;20112;-68
2023/11/14 08:00:16;;;;;;;0.82;0.60;;;21.90;55.10;;;;;;5018320;28;20470;-69
2023/11/14 08:02:42;;;;;;;0.93;0.60;;;21.90;55.10;;;;;;5001118;28;20023;-69
2023/11/14 08:05:09;;;;;;;0.95;0.70;;;21.90;55.10;;;;;;5015690;28;20382;-72
2023/11/14 08:07:35;;;;;;;1.50;0.70;;;21.90;55.10;;;;;;5001098;28;20041;-72
2023/11/14 08:10:01;;;;;;;1.55;0.80;;;21.90;55.00;;;;;;5018829;28;20018;-70
2023/11/14 08:12:27;;;;;;;1.13;0.80;;;22.00;55.00;;;;;;5016899;28;20053;-72
2023/11/14 08:14:52;;;;;;;1.00;0.60;;;21.90;55.00;;;;;;5018487;28;20033;-71
2023/11/14 08:17:21;;;;;;;1.40;0.63;;;22.00;55.10;;;;;;5020018;28;20026;-71
2023/11/14 08:19:47;;;;;;;1.15;0.68;;;22.00;55.10;;;;;;5034776;28;20025;-70
2023/11/14 08:22:12;;;;;;;1.42;0.70;;;22.00;55.20;;;;;;5016970;28;20034;-68
2023/11/14 08:24:38;;;;;;;1.38;0.60;;;22.00;55.20;;;;;;5018040;28;20037;-69
2023/11/14 08:27:05;;;;;;;1.70;0.70;;;22.00;55.20;;;;;;5016466;28;20178;-69
2023/11/14 08:29:32;;;;;;;0.85;0.60;;;22.00;55.20;;;;;;5016541;28;20022;-68
2023/11/14 08:31:58;;;;;;;0.80;0.63;;;22.00;55.20;;;;;;5017408;28;20155;-69
2023/11/14 08:34:24;;;;;;;1.48;0.70;;;22.00;55.20;;;;;;5016864;28;20199;-68
2023/11/14 08:36:50;;;;;;;1.27;0.70;;;22.00;55.20;;;;;;5015725;28;20026;-69
2023/11/14 08:39:15;;;;;;;1.38;0.60;;;21.90;55.20;;;;;;5019365;28;20389;-69
2023/11/14 08:41:41;;;;;;;0.85;0.55;;;21.90;55.40;;;;;;5020535;28;20026;-67
2023/11/14 08:44:10;;;;;;;1.88;0.65;;;21.90;55.30;;;;;;5020367;28;20041;-67
2023/11/14 08:46:36;;;;;;;0.52;0.50;;;21.90;56.40;;;;;;5022171;28;20484;-67
2023/11/14 08:49:04;;;;;;;1.20;0.65;;;21.90;55.80;;;;;;5019835;28;20034;-69
2023/11/14 08:51:30;;;;;;;1.35;0.60;;;21.90;55.80;;;;;;5020428;28;20029;-67
2023/11/14 08:53:56;;;;;;;1.13;0.57;;;21.90;55.60;;;;;;5023575;28;20547;-67
2023/11/14 08:56:21;;;;;;;1.92;0.65;;;21.90;55.60;;;;;;5038596;28;20030;-67
2023/11/14 08:58:47;;;;;;;2.05;0.65;;;21.90;55.60;;;;;;5019597;28;20034;-66
2023/11/14 09:01:14;;;;;;;1.63;0.82;;;22.00;55.60;;;;;;5022714;28;20113;-67
2023/11/14 09:03:40;;;;;;;0.80;0.60;;;22.00;55.60;;;;;;5036600;28;20092;-68
2023/11/14 09:06:07;;;;;;;1.30;0.55;;;21.90;55.80;;;;;;5021883;28;20053;-69
2023/11/14 09:08:34;;;;;;;1.85;0.70;;;22.00;55.90;;;;;;5022715;28;20096;-68
2023/11/14 09:11:00;;;;;;;2.25;0.70;;;21.90;55.70;;;;;;5022994;28;20061;-67
2023/11/14 09:13:25;;;;;;;0.77;0.55;;;22.00;55.70;;;;;;5019984;28;20422;-68
2023/11/14 09:15:51;;;;;;;1.75;0.60;;;22.00;55.80;;;;;;5022425;28;20481;-67
2023/11/14 09:18:16;;;;;;;1.42;0.50;;;22.00;55.80;;;;;;5022658;28;20025;-66
2023/11/14 09:20:43;;;;;;;1.02;0.57;;;22.00;56.00;;;;;;5020689;28;20072;-66
2023/11/14 09:23:08;;;;;;;1.35;0.70;;;22.00;55.90;;;;;;5021048;28;20374;-69
2023/11/14 09:25:34;;;;;;;1.13;0.60;;;22.00;55.80;;;;;;5022240;28;20088;-68
2023/11/14 09:28:00;;;;;;;1.42;0.60;;;22.00;55.80;;;;;;5019666;28;20029;-66
2023/11/14 09:30:26;;;;;;;1.10;0.60;;;22.00;56.00;;;;;;5021829;28;20987;-66
2023/11/14 09:32:51;;;;;;;1.58;0.60;;;22.00;55.90;;;;;;5020975;28;20037;-66
2023/11/14 09:35:17;;;;;;;0.90;0.60;;;22.00;55.80;;;;;;5020916;28;20112;-66
2023/11/14 09:37:42;;;;;;;1.17;0.73;;;22.00;55.70;;;;;;4995260;28;20433;-66
2023/11/14 09:40:13;;;;;;;1.10;0.60;;;22.00;55.60;;;;;;5021297;28;20026;-67
2023/11/14 09:42:38;;;;;;;1.38;0.60;;;22.00;55.60;;;;;;4986318;28;20077;-73
2023/11/14 09:45:05;;;;;;;0.80;0.60;;;22.00;55.60;;;;;;5000896;28;20034;-69
2023/11/14 09:47:31;;;;;;;1.20;0.68;;;22.00;55.70;;;;;;5023867;28;20026;-72
2023/11/14 09:49:58;;;;;;;1.45;0.70;;;22.00;55.60;;;;;;5021965;28;20447;-69
2023/11/14 09:52:24;;;;;;;0.98;0.65;;;22.00;55.80;;;;;;5016178;28;20030;-69
2023/11/14 09:54:50;;;;;;;1.02;0.70;;;22.00;55.80;;;;;;5037026;28;20041;-71
2023/11/14 09:57:18;;;;;;;0.95;0.60;;;22.00;55.50;;;;;;5036914;28;20470;-70
2023/11/14 09:59:45;;;;;;;1.17;0.60;;;22.00;55.40;;;;;;5014539;28;20491;-69
2023/11/14 10:02:11;;;;;;;1.23;0.60;;;22.00;55.60;;;;;;5021176;28;20493;-69
2023/11/14 10:04:41;;;;;;;1.10;0.70;;;22.10;55.50;;;;;;5019355;28;20137;-69
2023/11/14 10:07:10;;;;;;;1.38;0.70;;;22.10;55.40;;;;;;5019619;28;20627;-69
2023/11/14 10:09:39;;;;;;;1.40;0.60;;;22.10;55.30;;;;;;5022421;28;20531;-69
2023/11/14 10:12:05;;;;;;;0.93;0.55;;;22.10;55.10;;;;;;5021904;28;20044;-69
2023/11/14 10:14:47;;;;;;;1.33;0.70;;;22.10;55.10;;;;;;5019449;28;20030;-67
2023/11/14 10:17:17;;;;;;;1.33;0.60;;;22.10;55.20;;;;;;5020086;28;20466;-67
2023/11/14 10:20:09;;;;;;;0.68;0.60;;;22.10;55.10;;;;;;5018828;28;20022;-67
2023/11/14 10:22:35;;;;;;;1.40;0.63;;;22.10;55.10;;;;;;5019225;28;20053;-67
2023/11/14 10:25:02;;;;;;;0.95;0.50;;;22.10;55.10;;;;;;5003002;28;20037;-68
2023/11/14 10:27:31;;;;;;;1.00;0.52;;;22.10;55.70;;;;;;5018319;28;20033;-68
2023/11/14 10:29:58;;;;;;;0.80;0.60;;;22.10;55.40;;;;;;5017354;28;20368;-68
2023/11/14 10:32:24;;;;;;;1.85;1.08;;;22.00;55.10;;;;;;5020680;28;20018;-68
2023/11/14 10:34:53;;;;;;;1.10;0.52;;;22.10;55.00;;;;;;5022435;28;20397;-67
2023/11/14 10:37:30;;;;;;;1.00;0.55;;;22.00;55.10;;;;;;5020354;28;20105;-66
2023/11/14 10:39:57;;;;;;;1.00;0.60;;;22.00;55.10;;;;;;5019896;28;20497;-67
2023/11/14 10:42:23;;;;;;;1.48;0.70;;;22.10;55.20;;;;;;5019881;28;20022;-69
2023/11/14 10:44:59;;;;;;;1.08;0.60;;;22.10;55.20;;;;;;5017822;28;20022;-66
2023/11/14 10:47:43;;;;;;;0.90;0.60;;;22.10;55.20;;;;;;5019047;28;20459;-68
2023/11/14 10:50:30;;;;;;;1.13;0.70;;;22.10;55.60;;;;;;5017448;28;20100;-68
2023/11/14 10:52:56;;;;;;;1.88;0.70;;;22.10;55.20;;;;;;5019663;28;20033;-68
2023/11/14 10:55:23;;;;;;;0.82;0.50;;;22.10;55.30;;;;;;5017699;28;20026;-68
2023/11/14 10:57:50;;;;;;;1.13;0.60;;;22.00;55.20;;;;;;5034851;28;20496;-69
2023/11/14 11:00:22;;;;;;;1.27;0.68;;;22.10;55.30;;;;;;5017622;28;20531;-71
2023/11/14 11:02:52;;;;;;;1.23;0.90;;;22.10;55.30;;;;;;5018189;28;20038;-69
2023/11/14 11:05:20;;;;;;;1.05;0.50;;;22.10;55.40;;;;;;5019646;28;20168;-69
2023/11/14 11:07:46;;;;;;;1.25;0.70;;;22.00;55.30;;;;;;5020662;28;20485;-70
2023/11/14 11:10:12;;;;;;;0.88;0.60;;;22.10;55.40;;;;;;5019077;28;20068;-72
2023/11/14 11:12:40;;;;;;;1.65;0.50;;;22.10;55.50;;;;;;5002845;28;20445;-70
2023/11/14 11:15:10;;;;;;;0.90;0.60;;;22.10;55.50;;;;;;5015071;28;20411;-70
2023/11/14 11:17:45;;;;;;;0.77;0.60;;;22.10;55.50;;;;;;5014486;28;20359;-69
2023/11/14 11:20:22;;;;;;;1.00;0.70;;;22.10;55.40;;;;;;5018192;28;20466;-69
2023/11/14 11:23:13;;;;;;;1.40;0.65;;;22.10;55.40;;;;;;5020159;28;20507;-68
2023/11/14 11:25:43;;;;;;;1.08;0.60;;;22.10;55.40;;;;;;5018970;28;20040;-68
2023/11/14 11:28:29;;;;;;;1.38;0.60;;;22.10;55.40;;;;;;5018810;28;20026;-69
2023/11/14 11:31:15;;;;;;;0.55;0.40;;;22.10;55.40;;;;;;5015751;28;20041;-68
2023/11/14 11:33:45;;;;;;;0.82;0.60;;;22.10;55.40;;;;;;5018031;28;20466;-68
2023/11/14 11:36:26;;;;;;;1.20;0.70;;;22.10;55.30;;;;;;5017788;28;20024;-67
2023/11/14 11:38:57;;;;;;;0.65;0.50;;;22.10;55.40;;;;;;5017226;28;20041;-68
2023/11/14 11:41:25;;;;;;;1.35;0.65;;;22.10;55.30;;;;;;5017104;28;20101;-67
2023/11/14 11:44:17;;;;;;;0.82;0.63;;;22.10;55.40;;;;;;5018850;28;20033;-67
2023/11/14 11:46:46;;;;;;;0.50;0.45;;;22.10;55.60;;;;;;5016291;28;20077;-67
2023/11/14 11:49:16;;;;;;;2.03;0.57;;;22.10;55.70;;;;;;5018696;28;20033;-69
2023/11/14 11:51:49;;;;;;;0.73;0.50;;;22.20;55.60;;;;;;5017612;28;20022;-68
2023/11/14 11:54:27;;;;;;;1.05;0.50;;;22.20;55.40;;;;;;5017796;28;20109;-68
2023/11/14 11:57:10;;;;;;;1.50;0.50;;;22.30;55.20;;;;;;5017265;28;20025;-72
2023/11/14 11:59:42;;;;;;;1.02;0.60;;;22.40;55.10;;;;;;5018034;28;20482;-68
2023/11/14 12:02:10;;;;;;;1.58;0.68;;;22.40;54.90;;;;;;5019514;28;20474;-70
2023/11/14 12:04:36;;;;;;;1.00;0.60;;;22.50;54.90;;;;;;5031473;28;20044;-72
2023/11/14 12:07:03;;;;;;;1.40;0.70;;;22.60;55.10;;;;;;5019157;28;20055;-71
2023/11/14 12:09:31;;;;;;;1.48;0.65;;;22.60;54.70;;;;;;5019220;28;20152;-69
2023/11/14 12:11:57;;;;;;;1.00;0.57;;;22.70;54.60;;;;;;5019184;28;20050;-69
2023/11/14 12:14:23;;;;;;;0.65;0.52;;;22.70;54.40;;;;;;5015867;28;20448;-69
2023/11/14 12:16:49;;;;;;;1.13;0.60;;;22.80;54.30;;;;;;5022235;28;20029;-69
2023/11/14 12:19:15;;;;;;;1.50;0.70;;;22.80;54.30;;;;;;5023014;28;20026;-69
2023/11/14 12:21:44;;;;;;;1.65;0.70;;;22.90;54.30;;;;;;5036605;28;20026;-70
2023/11/14 12:24:11;;;;;;;;;;;22.90;54.20;;;;;;5023288;28;20034;-70
2023/11/14 12:26:37;;;;;;;1.15;0.52;;;23.00;54.20;;;;;;5022917;28;19905;-70
2023/11/14 12:29:10;;;;;;;1.00;0.60;;;23.00;54.00;;;;;;5020781;28;20022;-69
2023/11/14 12:31:36;;;;;;;1.30;0.60;;;23.10;53.70;;;;;;5018397;28;20377;-69
2023/11/14 12:34:04;;;;;;;0.75;0.52;;;23.10;53.50;;;;;;5022211;28;20022;-69
2023/11/14 12:36:31;;;;;;;1.23;0.70;;;23.20;53.40;;;;;;5021458;28;20049;-68
2023/11/14 12:39:12;;;;;;;0.90;0.60;;;23.20;53.20;;;;;;5022074;28;20028;-68
2023/11/14 12:41:43;;;;;;;1.27;0.60;;;23.20;53.10;;;;;;5020910;28;20072;-69
2023/11/14 12:44:11;;;;;;;1.10;0.70;;;23.20;53.10;;;;;;5023082;28;20477;-69
2023/11/14 12:46:38;;;;;;;1.10;0.50;;;23.20;53.10;;;;;;5020485;28;20569;-70
2023/11/14 12:49:11;;;;;;;1.33;0.68;;;23.20;53.10;;;;;;5004496;28;20033;-69